createdAt,value
2023-04-16T00:00:01.600Z,11.29
2023-04-16T00:15:02.185Z,11.36
2023-04-16T00:30:01.952Z,11.31
2023-04-16T00:45:01.583Z,11.27
2023-04-16T01:00:02.258Z,10.94
2023-04-16T01:15:02.014Z,11.31
2023-04-16T01:30:01.691Z,11.15
2023-04-16T01:45:02.324Z,11.09
2023-04-16T02:00:01.935Z,11.03
2023-04-16T02:15:01.596Z,10.81
2023-04-16T02:30:02.232Z,10.71
2023-04-16T02:45:01.911Z,10.63
2023-04-16T03:00:01.606Z,10.66
2023-04-16T03:15:02.265Z,10.5
2023-04-16T03:30:01.939Z,10.47
2023-04-16T03:45:01.589Z,10.36
2023-04-16T04:00:02.191Z,10.13
2023-04-16T04:15:01.810Z,10.21
2023-04-16T04:30:02.043Z,10.11
2023-04-16T04:45:01.689Z,9.99
2023-04-16T05:00:02.329Z,9.86
2023-04-16T05:15:01.952Z,10.03
2023-04-16T05:30:01.754Z,9.92
2023-04-16T05:45:02.496Z,9.88
2023-04-16T06:00:02.202Z,9.96
2023-04-16T06:15:01.965Z,10.02
2023-04-16T06:30:01.652Z,10.12
2023-04-16T06:45:02.286Z,10.17
2023-04-16T07:00:02.026Z,10.18
2023-04-16T07:15:01.704Z,10.22
2023-04-16T07:30:02.422Z,10.36
2023-04-16T07:45:02.003Z,10.55
2023-04-16T08:00:01.634Z,10.86
2023-04-16T08:15:02.282Z,11.03
2023-04-16T08:30:01.982Z,11.27
2023-04-16T08:45:01.681Z,11.6
2023-04-16T09:00:02.336Z,11.7
2023-04-16T09:15:01.970Z,11.95
2023-04-16T09:30:01.594Z,12.02
2023-04-16T09:45:04.262Z,12.25
2023-04-16T10:00:02.480Z,12.31
2023-04-16T10:15:02.061Z,12.44
2023-04-16T10:30:01.660Z,12.52
2023-04-16T10:45:02.307Z,12.67
2023-04-16T11:00:01.944Z,12.89
2023-04-16T11:15:01.655Z,13.11
2023-04-16T11:30:02.415Z,13.53
2023-04-16T11:45:02.119Z,13.72
2023-04-16T12:00:03.950Z,13.77
2023-04-16T12:15:01.638Z,13.88
2023-04-16T12:30:02.297Z,14.08
2023-04-16T12:45:01.882Z,14.22
2023-04-16T13:00:02.474Z,14.37
2023-04-16T13:15:02.130Z,14.48
2023-04-16T13:30:01.921Z,14.36
2023-04-16T13:45:01.604Z,14.46
2023-04-16T14:00:02.233Z,14.81
2023-04-16T14:15:01.864Z,14.76
2023-04-16T14:30:02.524Z,14.67
2023-04-16T14:45:02.173Z,14.96
2023-04-16T15:00:01.759Z,15.03
2023-04-16T15:15:02.453Z,14.85
2023-04-16T15:30:02.149Z,14.94
2023-04-16T15:45:01.856Z,14.79
2023-04-16T16:00:07.392Z,14.88
2023-04-16T16:15:02.240Z,14.89
2023-04-16T16:30:01.926Z,15.04
2023-04-16T16:45:01.548Z,15.03
2023-04-16T17:00:02.246Z,15.01
2023-04-16T17:15:01.889Z,14.9
2023-04-16T17:30:02.505Z,14.92
2023-04-16T17:45:02.083Z,14.68
2023-04-16T18:00:01.702Z,14.74
2023-04-16T18:15:02.266Z,14.53
2023-04-16T18:30:04.011Z,14.25
2023-04-16T18:45:02.134Z,14.18
2023-04-16T19:00:01.745Z,14.08
2023-04-16T19:15:02.404Z,14.01
2023-04-16T19:30:02.020Z,13.92
2023-04-16T19:45:01.715Z,13.86
2023-04-16T20:00:02.390Z,13.88
2023-04-16T20:15:02.073Z,13.84
2023-04-16T20:30:01.764Z,13.79
2023-04-16T20:45:02.365Z,13.73
2023-04-16T21:00:01.960Z,13.52
2023-04-16T21:15:01.584Z,13.77
2023-04-16T21:30:02.290Z,13.68
2023-04-16T21:45:01.912Z,13.45
2023-04-16T22:00:02.618Z,13.52
2023-04-16T22:15:03.057Z,13.16
2023-04-16T22:30:02.071Z,13.25
2023-04-16T22:45:01.729Z,13.18
2023-04-16T23:00:02.422Z,13.06
2023-04-16T23:15:02.084Z,12.91
2023-04-16T23:30:01.697Z,12.77
2023-04-16T23:45:02.320Z,12.84
